sensor_id;sensor_type;location;lat;lon;timestamp;pressure;altitude;pressure_sealevel;temperature;humidity
16431;BME280;8325;49.284;7.238;2023-07-13T04:04:26;98817.00;;;14.16;94.56
16431;BME280;8325;49.284;7.238;2023-07-13T04:08:38;98821.69;;;14.21;94.11
16431;BME280;8325;49.284;7.238;2023-07-13T04:12:50;98812.88;;;14.28;93.30
16431;BME280;8325;49.284;7.238;2023-07-13T04:17:01;98819.53;;;14.31;93.21
16431;BME280;8325;49.284;7.238;2023-07-13T04:21:14;98819.16;;;14.34;92.49
16431;BME280;8325;49.284;7.238;2023-07-13T04:25:26;98828.72;;;14.42;92.62
16431;BME280;8325;49.284;7.238;2023-07-13T04:29:37;98826.50;;;14.45;92.36
16431;BME280;8325;49.284;7.238;2023-07-13T04:33:49;98827.63;;;14.58;92.49
16431;BME280;8325;49.284;7.238;2023-07-13T04:38:02;98838.38;;;14.63;91.58
16431;BME280;8325;49.284;7.238;2023-07-13T04:42:13;98833.84;;;14.78;90.64
16431;BME280;8325;49.284;7.238;2023-07-13T04:46:25;98837.56;;;14.97;89.95
16431;BME280;8325;49.284;7.238;2023-07-13T04:50:37;98857.06;;;15.16;88.89
16431;BME280;8325;49.284;7.238;2023-07-13T04:54:49;98851.44;;;15.26;89.10
16431;BME280;8325;49.284;7.238;2023-07-13T04:59:01;98859.59;;;15.44;87.89
16431;BME280;8325;49.284;7.238;2023-07-13T05:03:12;98859.84;;;15.56;86.61
16431;BME280;8325;49.284;7.238;2023-07-13T05:07:25;98868.63;;;15.76;85.50
16431;BME280;8325;49.284;7.238;2023-07-13T05:11:37;98856.31;;;15.90;86.24
16431;BME280;8325;49.284;7.238;2023-07-13T05:16:00;98852.06;;;16.22;85.52
16431;BME280;8325;49.284;7.238;2023-07-13T05:20:12;98849.44;;;16.42;84.79
16431;BME280;8325;49.284;7.238;2023-07-13T05:24:23;98857.31;;;16.62;83.40
16431;BME280;8325;49.284;7.238;2023-07-13T05:28:37;98852.56;;;19.43;71.25
16431;BME280;8325;49.284;7.238;2023-07-13T05:32:48;98845.19;;;23.08;57.25
16431;BME280;8325;49.284;7.238;2023-07-13T05:37:00;98836.94;;;26.07;48.00
16431;BME280;8325;49.284;7.238;2023-07-13T05:41:12;98854.22;;;27.56;43.55
16431;BME280;8325;49.284;7.238;2023-07-13T05:45:23;98862.91;;;25.91;45.84
16431;BME280;8325;49.284;7.238;2023-07-13T05:49:35;98866.59;;;23.62;51.84
16431;BME280;8325;49.284;7.238;2023-07-13T05:53:47;98863.31;;;21.71;58.85
16431;BME280;8325;49.284;7.238;2023-07-13T05:57:59;98867.63;;;21.60;58.90
16431;BME280;8325;49.284;7.238;2023-07-13T06:02:12;98859.41;;;25.90;48.21
16431;BME280;8325;49.284;7.238;2023-07-13T06:06:23;98873.63;;;28.80;40.84
16431;BME280;8325;49.284;7.238;2023-07-13T06:10:35;98868.28;;;30.50;37.11
16431;BME280;8325;49.284;7.238;2023-07-13T06:14:47;98869.56;;;31.85;34.33
16431;BME280;8325;49.284;7.238;2023-07-13T06:18:59;98878.16;;;32.55;32.32
16431;BME280;8325;49.284;7.238;2023-07-13T06:23:10;98881.91;;;33.16;31.61
16431;BME280;8325;49.284;7.238;2023-07-13T06:27:23;98889.47;;;33.89;30.42
16431;BME280;8325;49.284;7.238;2023-07-13T06:31:35;98886.66;;;32.17;31.90
16431;BME280;8325;49.284;7.238;2023-07-13T06:35:47;98890.50;;;29.09;37.61
16431;BME280;8325;49.284;7.238;2023-07-13T06:39:58;98894.69;;;26.95;41.77
16431;BME280;8325;49.284;7.238;2023-07-13T06:44:10;98912.31;;;24.57;48.38
16431;BME280;8325;49.284;7.238;2023-07-13T06:48:22;98909.63;;;25.63;46.75
16431;BME280;8325;49.284;7.238;2023-07-13T06:52:33;98905.47;;;26.28;44.98
16431;BME280;8325;49.284;7.238;2023-07-13T06:56:45;98912.44;;;26.09;44.85
16431;BME280;8325;49.284;7.238;2023-07-13T07:00:56;98915.59;;;25.85;44.22
16431;BME280;8325;49.284;7.238;2023-07-13T07:05:08;98918.59;;;26.30;44.75
16431;BME280;8325;49.284;7.238;2023-07-13T07:09:20;98911.34;;;26.20;43.22
16431;BME280;8325;49.284;7.238;2023-07-13T07:13:31;98913.66;;;25.65;44.77
16431;BME280;8325;49.284;7.238;2023-07-13T07:17:43;98924.00;;;24.51;47.40
16431;BME280;8325;49.284;7.238;2023-07-13T07:21:55;98925.28;;;23.67;49.07
16431;BME280;8325;49.284;7.238;2023-07-13T07:26:06;98929.34;;;23.26;51.42
16431;BME280;8325;49.284;7.238;2023-07-13T07:30:20;98931.59;;;23.12;52.43
16431;BME280;8325;49.284;7.238;2023-07-13T07:34:34;98930.94;;;23.05;52.25
16431;BME280;8325;49.284;7.238;2023-07-13T07:38:46;98934.94;;;23.25;51.20
16431;BME280;8325;49.284;7.238;2023-07-13T07:42:57;98932.78;;;23.22;51.57
16431;BME280;8325;49.284;7.238;2023-07-13T07:47:09;98935.56;;;23.32;49.58
16431;BME280;8325;49.284;7.238;2023-07-13T07:51:20;98938.09;;;23.43;50.04
16431;BME280;8325;49.284;7.238;2023-07-13T07:55:34;98930.97;;;23.98;47.36
16431;BME280;8325;49.284;7.238;2023-07-13T07:59:49;98937.47;;;23.58;48.36
16431;BME280;8325;49.284;7.238;2023-07-13T08:04:04;98937.22;;;23.16;49.71
16431;BME280;8325;49.284;7.238;2023-07-13T08:08:18;98941.19;;;23.13;49.92
16431;BME280;8325;49.284;7.238;2023-07-13T08:12:33;98928.47;;;23.20;50.31
16431;BME280;8325;49.284;7.238;2023-07-13T08:16:48;98932.81;;;23.71;50.15
16431;BME280;8325;49.284;7.238;2023-07-13T08:21:05;98932.75;;;23.65;47.97
16431;BME280;8325;49.284;7.238;2023-07-13T08:25:17;98931.31;;;23.80;48.78
16431;BME280;8325;49.284;7.238;2023-07-13T08:29:28;98931.59;;;23.56;49.87
16431;BME280;8325;49.284;7.238;2023-07-13T08:33:43;98933.28;;;23.67;49.02
16431;BME280;8325;49.284;7.238;2023-07-13T08:37:54;98922.38;;;23.91;47.56
16431;BME280;8325;49.284;7.238;2023-07-13T08:46:38;98925.00;;;23.64;49.37
16431;BME280;8325;49.284;7.238;2023-07-13T08:51:04;98920.97;;;23.83;49.13
16431;BME280;8325;49.284;7.238;2023-07-13T08:55:24;98923.47;;;23.95;48.41
16431;BME280;8325;49.284;7.238;2023-07-13T08:59:37;98916.31;;;23.96;48.88
16431;BME280;8325;49.284;7.238;2023-07-13T09:04:09;98922.28;;;23.81;47.38
16431;BME280;8325;49.284;7.238;2023-07-13T09:08:46;98921.13;;;23.72;49.17
16431;BME280;8325;49.284;7.238;2023-07-13T09:13:37;98922.59;;;23.84;48.52
16431;BME280;8325;49.284;7.238;2023-07-13T09:17:51;98922.19;;;23.98;48.05
16431;BME280;8325;49.284;7.238;2023-07-13T09:22:05;98932.63;;;24.04;47.25
16431;BME280;8325;49.284;7.238;2023-07-13T09:26:22;98936.44;;;24.08;48.12
16431;BME280;8325;49.284;7.238;2023-07-13T09:30:51;98927.88;;;24.06;47.71
16431;BME280;8325;49.284;7.238;2023-07-13T09:35:16;98925.63;;;23.98;47.46
16431;BME280;8325;49.284;7.238;2023-07-13T09:39:31;98934.69;;;24.24;48.47
16431;BME280;8325;49.284;7.238;2023-07-13T09:48:20;98930.75;;;24.32;46.74
16431;BME280;8325;49.284;7.238;2023-07-13T09:56:57;98933.03;;;24.45;45.60
16431;BME280;8325;49.284;7.238;2023-07-13T10:01:09;98927.63;;;24.40;45.52
16431;BME280;8325;49.284;7.238;2023-07-13T10:05:21;98934.75;;;24.29;44.85
16431;BME280;8325;49.284;7.238;2023-07-13T10:09:36;98936.97;;;24.10;46.03
16431;BME280;8325;49.284;7.238;2023-07-13T10:13:55;98934.84;;;24.40;45.57
16431;BME280;8325;49.284;7.238;2023-07-13T10:18:09;98934.91;;;24.45;44.67
16431;BME280;8325;49.284;7.238;2023-07-13T10:22:27;98935.50;;;24.52;45.91
16431;BME280;8325;49.284;7.238;2023-07-13T10:26:47;98922.16;;;24.99;45.00
16431;BME280;8325;49.284;7.238;2023-07-13T10:31:01;98929.84;;;25.28;43.77
16431;BME280;8325;49.284;7.238;2023-07-13T10:35:15;98935.91;;;25.18;42.97
16431;BME280;8325;49.284;7.238;2023-07-13T10:39:30;98935.94;;;24.81;41.92
16431;BME280;8325;49.284;7.238;2023-07-13T10:43:44;98927.00;;;25.02;43.88
16431;BME280;8325;49.284;7.238;2023-07-13T10:47:56;98933.03;;;25.25;42.81
16431;BME280;8325;49.284;7.238;2023-07-13T10:52:45;98926.47;;;25.53;40.84
16431;BME280;8325;49.284;7.238;2023-07-13T10:57:16;98921.94;;;25.64;41.20
16431;BME280;8325;49.284;7.238;2023-07-13T11:01:40;98927.94;;;25.86;41.45
16431;BME280;8325;49.284;7.238;2023-07-13T11:06:07;98937.03;;;25.90;39.46
16431;BME280;8325;49.284;7.238;2023-07-13T11:10:46;98941.56;;;25.22;41.16
16431;BME280;8325;49.284;7.238;2023-07-13T11:23:30;98921.84;;;25.38;41.50
16431;BME280;8325;49.284;7.238;2023-07-13T11:27:45;98913.38;;;25.57;40.17
16431;BME280;8325;49.284;7.238;2023-07-13T11:31:59;98935.13;;;25.18;41.38
16431;BME280;8325;49.284;7.238;2023-07-13T11:36:18;98925.88;;;24.93;42.19
16431;BME280;8325;49.284;7.238;2023-07-13T11:40:32;98936.97;;;24.75;40.43
16431;BME280;8325;49.284;7.238;2023-07-13T11:44:50;98938.72;;;24.91;40.76
16431;BME280;8325;49.284;7.238;2023-07-13T11:49:20;98917.63;;;24.95;40.25
16431;BME280;8325;49.284;7.238;2023-07-13T11:53:40;98920.56;;;24.98;41.04
16431;BME280;8325;49.284;7.238;2023-07-13T11:57:58;98922.41;;;24.93;40.15
16431;BME280;8325;49.284;7.238;2023-07-13T12:02:18;98927.94;;;25.23;41.27
16431;BME280;8325;49.284;7.238;2023-07-13T12:06:35;98918.38;;;25.43;40.14
16431;BME280;8325;49.284;7.238;2023-07-13T12:11:01;98926.28;;;25.80;39.11
16431;BME280;8325;49.284;7.238;2023-07-13T12:15:16;98920.88;;;25.65;39.66
16431;BME280;8325;49.284;7.238;2023-07-13T12:19:28;98931.50;;;25.44;39.02
16431;BME280;8325;49.284;7.238;2023-07-13T12:23:43;98937.28;;;25.16;39.04
16431;BME280;8325;49.284;7.238;2023-07-13T12:27:55;98941.28;;;25.18;39.76
16431;BME280;8325;49.284;7.238;2023-07-13T12:32:08;98934.84;;;25.14;40.56
16431;BME280;8325;49.284;7.238;2023-07-13T12:36:20;98936.72;;;25.14;39.64
16431;BME280;8325;49.284;7.238;2023-07-13T12:40:34;98937.34;;;25.31;40.43
16431;BME280;8325;49.284;7.238;2023-07-13T12:44:47;98938.94;;;25.32;37.60
16431;BME280;8325;49.284;7.238;2023-07-13T12:48:59;98940.78;;;25.26;38.87
16431;BME280;8325;49.284;7.238;2023-07-13T12:53:30;98952.84;;;25.29;38.95
16431;BME280;8325;49.284;7.238;2023-07-13T12:57:47;98954.78;;;25.49;38.52
16431;BME280;8325;49.284;7.238;2023-07-13T13:02:00;98938.03;;;25.74;37.42
16431;BME280;8325;49.284;7.238;2023-07-13T13:10:26;98956.59;;;26.16;35.50
16431;BME280;8325;49.284;7.238;2023-07-13T13:14:38;98948.31;;;26.28;35.92
16431;BME280;8325;49.284;7.238;2023-07-13T13:18:51;98937.03;;;25.90;36.68
16431;BME280;8325;49.284;7.238;2023-07-13T13:23:04;98949.81;;;25.78;37.75
16431;BME280;8325;49.284;7.238;2023-07-13T13:27:21;98951.94;;;25.76;38.86
16431;BME280;8325;49.284;7.238;2023-07-13T13:31:33;98943.34;;;25.64;37.14
16431;BME280;8325;49.284;7.238;2023-07-13T13:35:45;98954.00;;;25.54;37.07
16431;BME280;8325;49.284;7.238;2023-07-13T13:39:57;98941.72;;;25.63;37.76
16431;BME280;8325;49.284;7.238;2023-07-13T13:44:21;98936.22;;;26.10;36.36
16431;BME280;8325;49.284;7.238;2023-07-13T13:48:34;98948.34;;;26.49;36.43
16431;BME280;8325;49.284;7.238;2023-07-13T13:52:47;98948.59;;;26.42;36.54
16431;BME280;8325;49.284;7.238;2023-07-13T13:56:58;98949.94;;;26.50;35.06
16431;BME280;8325;49.284;7.238;2023-07-13T14:01:19;98937.06;;;26.11;35.76
16431;BME280;8325;49.284;7.238;2023-07-13T14:05:32;98939.16;;;25.88;36.95
16431;BME280;8325;49.284;7.238;2023-07-13T14:09:43;98938.25;;;25.62;37.40
16431;BME280;8325;49.284;7.238;2023-07-13T14:13:57;98959.78;;;25.25;38.65
16431;BME280;8325;49.284;7.238;2023-07-13T14:18:09;98939.72;;;25.27;39.15
16431;BME280;8325;49.284;7.238;2023-07-13T14:22:21;98946.72;;;25.39;39.64
16431;BME280;8325;49.284;7.238;2023-07-13T14:26:37;98938.88;;;25.85;39.33
16431;BME280;8325;49.284;7.238;2023-07-13T14:30:49;98936.78;;;26.23;37.81
16431;BME280;8325;49.284;7.238;2023-07-13T14:35:01;98932.25;;;26.33;36.82
16431;BME280;8325;49.284;7.238;2023-07-13T14:39:21;98925.84;;;26.55;36.19
16431;BME280;8325;49.284;7.238;2023-07-13T14:43:33;98916.72;;;26.46;35.54
16431;BME280;8325;49.284;7.238;2023-07-13T14:47:46;98914.84;;;26.61;36.59
16431;BME280;8325;49.284;7.238;2023-07-13T14:52:18;98921.28;;;26.71;36.19
16431;BME280;8325;49.284;7.238;2023-07-13T14:56:30;98916.19;;;26.33;36.62
16431;BME280;8325;49.284;7.238;2023-07-13T15:00:42;98912.69;;;26.43;34.92
16431;BME280;8325;49.284;7.238;2023-07-13T15:04:53;98878.16;;;26.36;34.45
16431;BME280;8325;49.284;7.238;2023-07-13T15:09:11;98895.28;;;26.76;35.26
16431;BME280;8325;49.284;7.238;2023-07-13T15:13:22;98899.22;;;26.99;34.28
16431;BME280;8325;49.284;7.238;2023-07-13T15:17:40;98894.69;;;26.90;33.24
16431;BME280;8325;49.284;7.238;2023-07-13T15:21:54;98896.63;;;26.74;34.02
16431;BME280;8325;49.284;7.238;2023-07-13T15:26:15;98900.38;;;26.68;34.19
16431;BME280;8325;49.284;7.238;2023-07-13T15:30:29;98900.63;;;26.66;34.25
16431;BME280;8325;49.284;7.238;2023-07-13T15:34:41;98890.47;;;26.53;34.02
16431;BME280;8325;49.284;7.238;2023-07-13T15:38:54;98906.00;;;26.51;35.25
16431;BME280;8325;49.284;7.238;2023-07-13T15:43:11;98907.34;;;26.38;35.57
16431;BME280;8325;49.284;7.238;2023-07-13T15:47:23;98901.44;;;26.26;35.73
16431;BME280;8325;49.284;7.238;2023-07-13T15:51:34;98908.13;;;26.13;36.17
16431;BME280;8325;49.284;7.238;2023-07-13T15:55:46;98909.19;;;26.07;36.97
16431;BME280;8325;49.284;7.238;2023-07-13T15:59:58;98906.94;;;25.58;37.10
16431;BME280;8325;49.284;7.238;2023-07-13T16:04:11;98914.59;;;25.34;37.98
16431;BME280;8325;49.284;7.238;2023-07-13T16:08:26;98914.91;;;25.42;37.51
16431;BME280;8325;49.284;7.238;2023-07-13T16:12:38;98911.53;;;25.72;37.32
16431;BME280;8325;49.284;7.238;2023-07-13T16:16:53;98903.25;;;25.79;37.79
16431;BME280;8325;49.284;7.238;2023-07-13T16:21:12;98886.88;;;25.55;37.30
16431;BME280;8325;49.284;7.238;2023-07-13T16:25:25;98891.97;;;25.67;37.98
16431;BME280;8325;49.284;7.238;2023-07-13T16:29:37;98888.56;;;25.82;37.37
16431;BME280;8325;49.284;7.238;2023-07-13T16:33:50;98897.38;;;25.77;37.68
16431;BME280;8325;49.284;7.238;2023-07-13T16:38:21;98892.44;;;25.38;37.58
16431;BME280;8325;49.284;7.238;2023-07-13T16:42:34;98897.59;;;25.02;38.21
16431;BME280;8325;49.284;7.238;2023-07-13T16:46:50;98898.13;;;24.94;38.19
16431;BME280;8325;49.284;7.238;2023-07-13T16:51:04;98900.00;;;24.56;39.11
16431;BME280;8325;49.284;7.238;2023-07-13T16:55:22;98905.09;;;24.58;39.84
16431;BME280;8325;49.284;7.238;2023-07-13T16:59:40;98911.69;;;24.45;40.75
16431;BME280;8325;49.284;7.238;2023-07-13T17:03:52;98911.25;;;24.26;40.45
16431;BME280;8325;49.284;7.238;2023-07-13T17:08:23;98905.50;;;24.12;41.74
16431;BME280;8325;49.284;7.238;2023-07-13T17:12:37;98912.50;;;24.19;41.09
16431;BME280;8325;49.284;7.238;2023-07-13T17:16:51;98904.16;;;24.10;40.75
16431;BME280;8325;49.284;7.238;2023-07-13T17:21:06;98898.78;;;24.05;41.15
16431;BME280;8325;49.284;7.238;2023-07-13T17:25:21;98903.44;;;24.20;40.71
16431;BME280;8325;49.284;7.238;2023-07-13T17:29:34;98902.34;;;24.16;40.96
16431;BME280;8325;49.284;7.238;2023-07-13T17:33:50;98899.78;;;24.31;41.12
16431;BME280;8325;49.284;7.238;2023-07-13T17:38:03;98903.13;;;24.16;41.51
16431;BME280;8325;49.284;7.238;2023-07-13T17:42:17;98903.13;;;24.16;41.21
16431;BME280;8325;49.284;7.238;2023-07-13T17:46:31;98905.84;;;24.21;41.62
16431;BME280;8325;49.284;7.238;2023-07-13T17:50:50;98899.75;;;24.26;41.24
16431;BME280;8325;49.284;7.238;2023-07-13T17:55:13;98897.56;;;24.23;40.83
16431;BME280;8325;49.284;7.238;2023-07-13T17:59:26;98898.91;;;24.20;41.26
16431;BME280;8325;49.284;7.238;2023-07-13T18:03:43;98912.16;;;24.10;41.10
16431;BME280;8325;49.284;7.238;2023-07-13T18:07:56;98903.28;;;24.04;41.61
16431;BME280;8325;49.284;7.238;2023-07-13T18:12:12;98901.53;;;23.88;43.27
16431;BME280;8325;49.284;7.238;2023-07-13T18:16:29;98908.94;;;23.81;42.73
16431;BME280;8325;49.284;7.238;2023-07-13T18:20:43;98910.75;;;23.53;43.81
16431;BME280;8325;49.284;7.238;2023-07-13T18:24:56;98910.28;;;23.34;44.06
16431;BME280;8325;49.284;7.238;2023-07-13T18:29:08;98903.47;;;23.22;44.63
16431;BME280;8325;49.284;7.238;2023-07-13T18:33:27;98909.09;;;23.03;45.86
16431;BME280;8325;49.284;7.238;2023-07-13T18:37:46;98917.06;;;22.86;46.72
16431;BME280;8325;49.284;7.238;2023-07-13T18:42:07;98918.22;;;22.73;47.14
16431;BME280;8325;49.284;7.238;2023-07-13T18:46:27;98908.41;;;22.57;48.64
16431;BME280;8325;49.284;7.238;2023-07-13T18:50:46;98909.19;;;22.41;50.14
16431;BME280;8325;49.284;7.238;2023-07-13T18:55:01;98908.88;;;22.37;50.21
16431;BME280;8325;49.284;7.238;2023-07-13T18:59:18;98913.25;;;22.26;51.33
16431;BME280;8325;49.284;7.238;2023-07-13T19:03:36;98922.41;;;22.19;51.93
16431;BME280;8325;49.284;7.238;2023-07-13T19:07:48;98929.38;;;22.08;52.93
16431;BME280;8325;49.284;7.238;2023-07-13T19:12:00;98929.91;;;21.93;54.50
16431;BME280;8325;49.284;7.238;2023-07-13T19:16:13;98934.22;;;21.82;57.31
16431;BME280;8325;49.284;7.238;2023-07-13T19:20:26;98933.06;;;21.62;59.67
16431;BME280;8325;49.284;7.238;2023-07-13T19:24:38;98933.63;;;21.52;60.45
16431;BME280;8325;49.284;7.238;2023-07-13T19:28:52;98941.75;;;21.33;61.93
16431;BME280;8325;49.284;7.238;2023-07-13T19:33:05;98950.44;;;21.17;61.97
16431;BME280;8325;49.284;7.238;2023-07-13T19:37:22;98947.22;;;21.03;62.42
16431;BME280;8325;49.284;7.238;2023-07-13T19:41:36;98952.28;;;20.93;62.62
16431;BME280;8325;49.284;7.238;2023-07-13T19:45:48;98953.25;;;20.75;63.76
16431;BME280;8325;49.284;7.238;2023-07-13T19:50:00;98958.88;;;20.67;64.98
16431;BME280;8325;49.284;7.238;2023-07-13T19:54:15;98950.09;;;20.55;65.22
16431;BME280;8325;49.284;7.238;2023-07-13T19:58:28;98952.81;;;20.36;65.91
16431;BME280;8325;49.284;7.238;2023-07-13T20:02:39;98958.22;;;20.30;66.08
16431;BME280;8325;49.284;7.238;2023-07-13T20:06:51;98961.13;;;20.10;66.01
16431;BME280;8325;49.284;7.238;2023-07-13T20:11:03;98959.47;;;19.97;66.43
16431;BME280;8325;49.284;7.238;2023-07-13T20:15:16;98962.16;;;19.78;67.18
16431;BME280;8325;49.284;7.238;2023-07-13T20:19:34;98972.25;;;19.70;67.32
16431;BME280;8325;49.284;7.238;2023-07-13T20:23:46;98985.19;;;19.60;68.15
16431;BME280;8325;49.284;7.238;2023-07-13T20:27:59;98984.47;;;19.52;68.62
16431;BME280;8325;49.284;7.238;2023-07-13T20:32:17;98985.03;;;19.36;69.21
16431;BME280;8325;49.284;7.238;2023-07-13T20:36:35;98988.28;;;19.20;69.92
16431;BME280;8325;49.284;7.238;2023-07-13T20:40:49;98987.66;;;19.18;69.52
16431;BME280;8325;49.284;7.238;2023-07-13T20:45:58;98995.31;;;19.07;68.83
16431;BME280;8325;49.284;7.238;2023-07-13T20:50:18;98991.13;;;19.00;68.94
16431;BME280;8325;49.284;7.238;2023-07-13T20:54:31;98996.25;;;18.95;68.90
16431;BME280;8325;49.284;7.238;2023-07-13T20:58:44;99004.19;;;18.95;69.27
16431;BME280;8325;49.284;7.238;2023-07-13T21:03:01;98991.81;;;18.89;69.08
16431;BME280;8325;49.284;7.238;2023-07-13T21:07:18;98984.56;;;18.77;68.60
16431;BME280;8325;49.284;7.238;2023-07-13T21:11:30;99002.75;;;18.67;68.74
16431;BME280;8325;49.284;7.238;2023-07-13T21:15:44;99002.00;;;18.60;69.78
16431;BME280;8325;49.284;7.238;2023-07-13T21:19:58;98994.38;;;18.45;70.58
16431;BME280;8325;49.284;7.238;2023-07-13T21:24:10;99004.19;;;18.31;71.99
16431;BME280;8325;49.284;7.238;2023-07-13T21:28:23;99013.16;;;18.30;72.55
